Time;durP1;ratioP1;P1;durP2;ratioP2;P2;SDS_P1;SDS_P2;PMS_P1;PMS_P2;Temp;Humidity;BMP_temperature;BMP_pressure;BME280_temperature;BME280_humidity;BME280_pressure;Samples;Min_cycle;Max_cycle;Signal;HPM_P1;HPM_P2
2022/09/17 00:01:21;;;;;;;7.17;3.07;;;11.80;99.90;;;;;;5050538;28;20420;-53
2022/09/17 00:03:52;;;;;;;8.00;3.43;;;11.80;99.90;;;;;;5050993;28;20427;-47
2022/09/17 00:06:19;;;;;;;6.07;3.10;;;11.90;99.90;;;;;;5051242;28;20437;-49
2022/09/17 00:08:44;;;;;;;5.50;2.77;;;11.80;99.90;;;;;;5051494;28;20422;-52
2022/09/17 00:11:16;;;;;;;4.90;3.00;;;11.90;99.90;;;;;;5050888;28;20499;-49
2022/09/17 00:13:43;;;;;;;6.63;3.40;;;11.90;99.90;;;;;;5050872;28;20209;-54
2022/09/17 00:16:12;;;;;;;4.47;2.40;;;11.90;99.90;;;;;;5051047;28;20424;-52
2022/09/17 00:18:40;;;;;;;9.70;3.00;;;11.90;99.90;;;;;;5051331;28;20423;-52
2022/09/17 00:21:14;;;;;;;4.37;2.60;;;11.90;99.90;;;;;;5058656;28;20844;-50
2022/09/17 00:23:40;;;;;;;4.83;2.50;;;11.80;99.90;;;;;;5050272;28;20428;-55
2022/09/17 00:26:05;;;;;;;2.97;1.97;;;11.80;99.90;;;;;;5051144;28;20467;-54
2022/09/17 00:28:31;;;;;;;5.50;3.40;;;11.80;99.90;;;;;;5050915;28;20251;-53
2022/09/17 00:30:57;;;;;;;7.33;1.97;;;11.80;99.90;;;;;;5051141;28;20221;-49
2022/09/17 00:33:22;;;;;;;4.87;2.07;;;11.80;99.90;;;;;;5048973;28;20206;-53
2022/09/17 00:35:59;;;;;;;6.07;2.47;;;11.70;99.90;;;;;;5051007;28;20177;-50
2022/09/17 00:38:26;;;;;;;6.67;2.77;;;11.70;99.90;;;;;;5049803;28;20193;-53
2022/09/17 00:40:52;;;;;;;5.60;2.20;;;11.60;99.90;;;;;;5049403;28;20435;-48
2022/09/17 00:43:46;;;;;;;3.77;1.97;;;11.60;99.90;;;;;;5049967;28;20420;-51
2022/09/17 00:46:24;;;;;;;5.33;1.80;;;11.60;99.90;;;;;;5050805;28;20210;-51
2022/09/17 00:48:52;;;;;;;3.77;2.40;;;11.70;99.90;;;;;;5047622;28;20409;-52
2022/09/17 00:51:24;;;;;;;4.47;2.00;;;11.80;99.90;;;;;;5048902;28;20413;-51
2022/09/17 00:53:50;;;;;;;4.30;1.63;;;11.80;99.90;;;;;;5048302;28;20978;-52
2022/09/17 00:56:24;;;;;;;5.90;2.20;;;11.80;99.90;;;;;;5050571;28;20512;-49
2022/09/17 00:58:51;;;;;;;5.27;2.17;;;11.70;99.90;;;;;;5050436;28;20186;-49
2022/09/17 01:01:17;;;;;;;7.43;2.20;;;11.70;99.90;;;;;;5050111;28;20424;-54
2022/09/17 01:03:43;;;;;;;5.97;2.40;;;11.70;99.90;;;;;;5049787;28;20915;-50
2022/09/17 01:06:21;;;;;;;6.57;2.17;;;11.80;99.90;;;;;;5050132;28;21247;-52
2022/09/17 01:09:18;;;;;;;7.67;2.43;;;11.80;99.90;;;;;;5050295;28;20825;-49
2022/09/17 01:12:22;;;;;;;4.73;2.10;;;11.80;99.90;;;;;;5050265;28;20506;-54
2022/09/17 01:14:59;;;;;;;4.43;2.60;;;11.70;99.90;;;;;;5044189;28;21083;-52
2022/09/17 01:17:27;;;;;;;4.63;2.37;;;11.70;99.90;;;;;;5050102;28;20431;-51
2022/09/17 01:20:17;;;;;;;4.43;1.93;;;11.70;99.90;;;;;;5057436;28;20897;-52
2022/09/17 01:22:59;;;;;;;8.50;2.63;;;11.80;99.90;;;;;;5036502;28;20796;-54
2022/09/17 01:25:57;;;;;;;7.40;3.33;;;11.80;99.90;;;;;;5049892;28;20447;-51
2022/09/17 01:28:28;;;;;;;6.10;2.80;;;11.70;99.90;;;;;;5049669;28;20423;-52
2022/09/17 01:31:05;;;;;;;5.00;2.83;;;11.70;99.90;;;;;;5050258;28;20992;-51
2022/09/17 01:33:52;;;;;;;6.87;3.07;;;11.50;99.90;;;;;;5049212;28;20443;-49
2022/09/17 01:36:26;;;;;;;7.23;3.93;;;11.50;99.90;;;;;;5050079;28;21203;-49
2022/09/17 01:39:14;;;;;;;8.00;3.43;;;11.50;99.90;;;;;;5049963;28;20419;-54
2022/09/17 01:41:59;;;;;;;12.70;4.20;;;11.50;99.90;;;;;;5050045;28;20420;-50
2022/09/17 01:44:35;;;;;;;6.20;3.00;;;11.50;99.90;;;;;;5049107;28;20452;-51
2022/09/17 01:47:12;;;;;;;7.20;3.23;;;11.40;99.90;;;;;;5049496;28;20503;-51
2022/09/17 01:49:39;;;;;;;9.17;3.63;;;11.30;99.90;;;;;;5049786;28;20783;-52
2022/09/17 01:52:11;;;;;;;7.63;3.80;;;11.30;99.90;;;;;;5044586;28;20451;-50
2022/09/17 01:54:43;;;;;;;9.23;3.63;;;11.30;99.90;;;;;;5046167;28;20864;-52
2022/09/17 01:57:32;;;;;;;4.13;3.30;;;11.30;99.90;;;;;;5049833;28;20435;-50
2022/09/17 02:00:10;;;;;;;10.07;3.40;;;11.50;99.90;;;;;;5049550;28;20436;-48
2022/09/17 02:02:42;;;;;;;9.23;3.80;;;11.60;99.90;;;;;;5049464;28;20781;-49
2022/09/17 02:05:15;;;;;;;11.80;3.63;;;11.60;99.90;;;;;;5049418;28;20495;-50
2022/09/17 02:07:48;;;;;;;6.70;4.00;;;11.60;99.90;;;;;;5049508;28;20408;-47
2022/09/17 02:10:19;;;;;;;11.23;4.57;;;11.50;99.90;;;;;;5049845;28;20836;-49
2022/09/17 02:12:59;;;;;;;6.03;3.93;;;11.50;99.90;;;;;;5049074;28;20444;-51
2022/09/17 02:15:32;;;;;;;9.73;3.97;;;11.50;99.90;;;;;;5049530;28;20511;-49
2022/09/17 02:18:22;;;;;;;8.03;3.83;;;11.50;99.90;;;;;;5049592;28;20507;-50
2022/09/17 02:20:53;;;;;;;8.57;3.70;;;11.50;99.90;;;;;;5056908;28;20429;-48
2022/09/17 02:23:31;;;;;;;10.90;4.00;;;11.40;99.90;;;;;;5050087;28;20427;-49
2022/09/17 02:26:03;;;;;;;7.90;3.77;;;11.40;99.90;;;;;;5053219;28;20455;-53
2022/09/17 02:28:47;;;;;;;9.80;3.87;;;11.50;99.90;;;;;;5053218;28;20838;-51
2022/09/17 02:31:12;;;;;;;8.67;3.00;;;11.60;99.90;;;;;;5053337;28;20466;-50
2022/09/17 02:33:42;;;;;;;3.90;2.90;;;11.60;99.90;;;;;;5052580;28;20424;-52
2022/09/17 02:36:08;;;;;;;9.37;3.70;;;11.50;99.90;;;;;;5053105;28;20459;-50
2022/09/17 02:38:34;;;;;;;8.00;3.70;;;11.40;99.90;;;;;;5053119;28;20857;-52
2022/09/17 02:41:17;;;;;;;7.17;3.07;;;11.40;99.90;;;;;;5052888;28;20186;-50
2022/09/17 02:44:01;;;;;;;10.10;3.90;;;11.30;99.90;;;;;;5052640;28;20420;-52
2022/09/17 02:46:48;;;;;;;11.90;3.53;;;11.40;99.90;;;;;;5052810;28;20786;-53
2022/09/17 02:49:28;;;;;;;6.50;3.40;;;11.40;99.90;;;;;;5050868;28;20444;-50
2022/09/17 02:52:22;;;;;;;8.93;3.60;;;11.50;99.90;;;;;;5044511;28;20409;-52
2022/09/17 02:55:06;;;;;;;8.40;2.83;;;11.40;99.90;;;;;;5047876;28;20408;-49
2022/09/17 02:58:05;;;;;;;15.90;4.27;;;11.50;99.90;;;;;;5046004;28;20408;-50
2022/09/17 03:00:31;;;;;;;5.50;3.10;;;11.50;99.90;;;;;;5043783;28;20439;-47
2022/09/17 03:03:26;;;;;;;11.27;4.03;;;11.50;99.90;;;;;;5051867;28;20427;-48
2022/09/17 03:05:53;;;;;;;7.17;3.17;;;11.50;99.90;;;;;;5052334;28;20463;-49
2022/09/17 03:08:26;;;;;;;6.13;3.40;;;11.50;99.90;;;;;;5052164;28;20478;-51
2022/09/17 03:10:52;;;;;;;9.17;3.60;;;11.60;99.90;;;;;;5052560;28;20412;-52
2022/09/17 03:13:18;;;;;;;14.30;3.33;;;11.60;99.90;;;;;;5051161;28;20478;-47
2022/09/17 03:15:43;;;;;;;9.53;4.20;;;11.60;99.90;;;;;;5051375;28;20201;-47
2022/09/17 03:18:09;;;;;;;9.70;3.83;;;11.60;99.90;;;;;;5051859;28;20427;-52
2022/09/17 03:20:34;;;;;;;5.70;3.47;;;11.50;99.90;;;;;;5059803;28;20178;-50
2022/09/17 03:23:00;;;;;;;5.53;3.00;;;11.50;99.90;;;;;;5051924;28;20289;-52
2022/09/17 03:25:26;;;;;;;8.43;3.93;;;11.40;99.90;;;;;;5052299;28;20216;-48
2022/09/17 03:27:51;;;;;;;8.60;3.40;;;11.50;99.90;;;;;;5052374;28;20190;-54
2022/09/17 03:30:18;;;;;;;6.43;2.90;;;11.50;99.90;;;;;;5052135;28;20190;-53
2022/09/17 03:32:44;;;;;;;6.33;3.20;;;11.60;99.90;;;;;;5051439;28;20269;-51
2022/09/17 03:35:09;;;;;;;7.07;2.93;;;11.50;99.90;;;;;;5050612;28;20519;-53
2022/09/17 03:37:35;;;;;;;7.50;3.07;;;11.50;99.90;;;;;;5051909;28;20420;-49
2022/09/17 03:40:01;;;;;;;9.63;3.33;;;11.50;99.90;;;;;;5053441;28;20691;-54
2022/09/17 03:42:27;;;;;;;10.23;3.97;;;11.50;99.90;;;;;;5051789;28;20190;-54
2022/09/17 03:44:52;;;;;;;9.50;2.87;;;11.40;99.90;;;;;;5051095;28;20463;-51
2022/09/17 03:47:18;;;;;;;7.47;3.33;;;11.50;99.90;;;;;;5051683;28;20193;-51
2022/09/17 03:49:44;;;;;;;9.23;3.53;;;11.40;99.90;;;;;;5051475;28;20174;-50
2022/09/17 03:52:09;;;;;;;10.20;4.03;;;11.50;99.90;;;;;;5051767;28;20235;-54
2022/09/17 03:54:35;;;;;;;6.27;3.17;;;11.50;99.90;;;;;;5049014;28;20189;-47
2022/09/17 03:57:01;;;;;;;13.47;3.17;;;11.50;99.90;;;;;;5051784;28;20197;-53
2022/09/17 03:59:26;;;;;;;9.43;3.20;;;11.50;99.90;;;;;;5051486;28;20194;-48
2022/09/17 04:01:52;;;;;;;10.03;3.00;;;11.50;99.90;;;;;;5051771;28;20190;-49
2022/09/17 04:04:17;;;;;;;8.47;2.10;;;11.50;99.90;;;;;;5050536;28;20212;-50
2022/09/17 04:06:43;;;;;;;10.80;4.07;;;11.50;99.90;;;;;;5051444;28;20252;-51
2022/09/17 04:09:09;;;;;;;8.63;2.63;;;11.40;99.90;;;;;;5051360;28;20645;-51
2022/09/17 04:11:34;;;;;;;4.87;2.40;;;11.40;99.90;;;;;;5050293;28;20193;-53
2022/09/17 04:14:00;;;;;;;8.10;2.63;;;11.40;99.90;;;;;;5050726;28;20304;-50
2022/09/17 04:16:26;;;;;;;7.37;2.63;;;11.40;99.90;;;;;;5051287;28;20192;-51
2022/09/17 04:18:52;;;;;;;6.23;2.60;;;11.40;99.90;;;;;;5051116;28;20243;-53
2022/09/17 04:21:18;;;;;;;8.60;2.67;;;11.30;99.90;;;;;;5058725;28;20946;-50
2022/09/17 04:23:43;;;;;;;10.17;2.73;;;11.40;99.90;;;;;;5050462;28;20194;-50
2022/09/17 04:26:09;;;;;;;8.13;2.20;;;11.40;99.90;;;;;;5051045;28;20228;-49
2022/09/17 04:28:35;;;;;;;6.10;2.00;;;11.40;99.90;;;;;;5051171;28;20276;-51
2022/09/17 04:31:01;;;;;;;8.23;2.00;;;11.30;99.90;;;;;;5051001;28;20775;-52
2022/09/17 04:33:26;;;;;;;5.60;2.13;;;11.20;99.90;;;;;;5049003;28;20657;-54
2022/09/17 04:35:53;;;;;;;9.20;2.60;;;11.20;99.90;;;;;;5050763;28;20201;-50
2022/09/17 04:38:19;;;;;;;8.37;1.83;;;11.30;99.90;;;;;;5050885;28;20195;-51
2022/09/17 04:40:47;;;;;;;5.40;2.30;;;11.30;99.90;;;;;;5050730;28;20428;-50
2022/09/17 04:43:13;;;;;;;4.17;1.93;;;11.30;99.90;;;;;;5050322;28;20451;-53
2022/09/17 04:45:39;;;;;;;5.93;1.27;;;11.40;99.90;;;;;;5050149;28;20456;-53
2022/09/17 04:48:05;;;;;;;4.23;1.80;;;11.40;99.90;;;;;;5050503;28;20300;-47
2022/09/17 04:50:31;;;;;;;6.77;1.90;;;11.40;99.90;;;;;;5050636;28;20262;-54
2022/09/17 04:52:56;;;;;;;7.50;1.90;;;11.40;99.90;;;;;;5049850;28;20261;-53
2022/09/17 04:55:22;;;;;;;5.30;1.80;;;11.40;99.90;;;;;;5049346;28;20524;-50
2022/09/17 04:57:50;;;;;;;5.00;2.03;;;11.40;99.90;;;;;;5050533;28;20283;-47
2022/09/17 05:00:16;;;;;;;4.17;1.87;;;11.40;99.90;;;;;;5050398;28;20185;-51
2022/09/17 05:02:47;;;;;;;6.70;1.63;;;11.50;99.90;;;;;;5049566;28;20519;-50
2022/09/17 05:05:14;;;;;;;7.43;1.40;;;11.60;99.90;;;;;;5050328;28;20464;-52
2022/09/17 05:07:40;;;;;;;7.70;2.73;;;11.70;99.90;;;;;;5050332;28;20444;-51
2022/09/17 05:10:07;;;;;;;6.53;1.50;;;11.80;99.90;;;;;;5050295;28;20416;-52
2022/09/17 05:12:33;;;;;;;6.03;1.83;;;11.70;99.90;;;;;;5048735;28;20439;-50
2022/09/17 05:14:58;;;;;;;7.73;1.67;;;11.80;99.90;;;;;;5051714;28;20440;-51
2022/09/17 05:17:24;;;;;;;6.20;1.60;;;11.70;99.90;;;;;;5048459;28;20268;-49
2022/09/17 05:19:52;;;;;;;7.10;1.70;;;11.70;99.90;;;;;;5046401;28;20291;-54
2022/09/17 05:22:18;;;;;;;8.83;1.70;;;11.70;99.90;;;;;;5049725;28;20181;-50
2022/09/17 05:24:43;;;;;;;10.10;1.53;;;11.70;99.90;;;;;;5049308;28;20554;-54
2022/09/17 05:27:09;;;;;;;7.83;2.07;;;11.60;99.90;;;;;;5053759;28;20412;-54
2022/09/17 05:29:35;;;;;;;5.80;1.33;;;11.60;99.90;;;;;;5070119;28;20290;-52
2022/09/17 05:32:05;;;;;;;8.37;1.97;;;11.70;99.90;;;;;;5069658;28;20178;-49
2022/09/17 05:34:31;;;;;;;7.43;1.60;;;11.70;99.90;;;;;;5069331;28;21028;-50
2022/09/17 05:36:57;;;;;;;3.07;1.50;;;11.70;99.90;;;;;;5070067;28;20458;-50
2022/09/17 05:39:24;;;;;;;5.33;1.57;;;11.70;99.90;;;;;;5060760;28;20557;-50
2022/09/17 05:41:54;;;;;;;7.43;2.03;;;11.70;99.90;;;;;;5049719;28;20209;-50
2022/09/17 05:44:20;;;;;;;6.67;2.13;;;11.70;99.90;;;;;;5049086;28;20429;-53
2022/09/17 05:46:46;;;;;;;3.40;1.40;;;11.70;99.90;;;;;;5049598;28;20452;-50
2022/09/17 05:49:13;;;;;;;5.10;1.30;;;11.80;99.90;;;;;;5049668;28;20513;-46
2022/09/17 05:51:42;;;;;;;6.70;2.00;;;11.80;99.90;;;;;;5049803;28;20428;-50
2022/09/17 05:54:08;;;;;;;4.43;1.50;;;11.80;99.90;;;;;;5048116;28;20426;-53
2022/09/17 05:56:34;;;;;;;6.87;1.60;;;11.90;99.90;;;;;;5049715;28;20874;-48
2022/09/17 05:58:59;;;;;;;6.43;1.30;;;12.00;99.90;;;;;;5044442;28;20430;-48
2022/09/17 06:01:25;;;;;;;6.90;2.07;;;12.00;99.90;;;;;;5052373;28;20189;-51
2022/09/17 06:03:51;;;;;;;5.93;1.53;;;12.20;99.90;;;;;;5052071;28;20424;-51
2022/09/17 06:06:17;;;;;;;5.20;1.57;;;12.30;99.90;;;;;;5052123;28;20216;-51
2022/09/17 06:08:42;;;;;;;4.13;1.20;;;12.20;99.90;;;;;;5053768;28;20620;-50
2022/09/17 06:11:08;;;;;;;6.50;1.83;;;12.30;99.90;;;;;;5051634;28;20197;-50
2022/09/17 06:13:34;;;;;;;4.93;1.90;;;12.30;99.90;;;;;;5052562;28;20178;-50
2022/09/17 06:16:01;;;;;;;4.73;1.90;;;12.20;99.90;;;;;;5053714;28;20200;-51
2022/09/17 06:18:28;;;;;;;3.37;1.60;;;12.20;99.90;;;;;;5053652;28;20436;-47
2022/09/17 06:20:59;;;;;;;5.60;2.43;;;12.20;99.90;;;;;;5060995;28;20508;-51
2022/09/17 06:23:26;;;;;;;4.90;2.17;;;12.20;99.90;;;;;;5052856;28;20840;-52
2022/09/17 06:25:57;;;;;;;5.20;1.97;;;12.20;99.90;;;;;;5053348;28;20466;-48
2022/09/17 06:28:23;;;;;;;5.90;1.80;;;12.10;99.90;;;;;;5052689;28;20428;-51
2022/09/17 06:30:53;;;;;;;5.30;1.40;;;12.20;99.90;;;;;;5051153;28;21030;-52
2022/09/17 06:33:19;;;;;;;3.80;1.80;;;12.20;99.90;;;;;;5052533;28;20771;-51
2022/09/17 06:35:45;;;;;;;5.50;1.80;;;12.30;99.90;;;;;;5054351;28;20502;-48
2022/09/17 06:38:10;;;;;;;5.00;1.40;;;12.30;99.90;;;;;;5052416;28;20475;-50
2022/09/17 06:40:36;;;;;;;6.23;1.70;;;12.30;99.90;;;;;;5052947;28;20189;-49
2022/09/17 06:43:02;;;;;;;5.00;1.93;;;12.20;99.90;;;;;;5052430;28;20420;-47
2022/09/17 06:45:28;;;;;;;8.93;2.50;;;12.20;99.90;;;;;;5059383;28;20277;-51
2022/09/17 06:47:53;;;;;;;8.33;2.60;;;12.20;99.90;;;;;;5056436;28;20428;-51
2022/09/17 06:50:19;;;;;;;3.57;2.13;;;12.20;99.90;;;;;;5054492;28;20182;-48
2022/09/17 06:52:52;;;;;;;10.50;2.90;;;12.20;99.90;;;;;;5051024;28;20194;-51
2022/09/17 06:55:18;;;;;;;8.33;2.57;;;12.20;99.90;;;;;;5051541;28;20217;-53
2022/09/17 06:57:45;;;;;;;12.47;2.57;;;12.20;99.90;;;;;;5050958;28;20787;-50
2022/09/17 07:00:13;;;;;;;8.67;2.50;;;12.20;99.90;;;;;;5053746;28;20424;-52
2022/09/17 07:02:38;;;;;;;5.47;2.10;;;12.20;99.90;;;;;;5053387;28;20436;-50
2022/09/17 07:05:05;;;;;;;5.23;1.50;;;12.20;99.90;;;;;;5051501;28;21273;-54
2022/09/17 07:07:30;;;;;;;6.20;2.50;;;12.20;99.90;;;;;;5044797;28;20204;-53
2022/09/17 07:09:56;;;;;;;4.73;1.93;;;12.20;99.90;;;;;;5048947;28;20907;-50
2022/09/17 07:12:22;;;;;;;8.30;1.83;;;12.30;99.90;;;;;;5052089;28;20201;-50
2022/09/17 07:14:48;;;;;;;4.93;1.90;;;12.30;99.90;;;;;;5052051;28;20201;-54
2022/09/17 07:17:14;;;;;;;9.37;1.60;;;12.30;99.90;;;;;;5052735;28;20185;-50
2022/09/17 07:19:40;;;;;;;4.47;2.13;;;12.30;99.90;;;;;;5053287;28;21097;-52
2022/09/17 07:22:06;;;;;;;5.83;2.03;;;12.30;99.90;;;;;;5049960;28;20443;-48
2022/09/17 07:24:32;;;;;;;4.67;2.20;;;12.30;99.90;;;;;;5050113;28;20218;-50
2022/09/17 07:26:58;;;;;;;7.47;2.10;;;12.30;99.90;;;;;;5051479;28;20517;-53
2022/09/17 07:29:25;;;;;;;3.93;1.70;;;12.50;99.90;;;;;;5051920;28;20905;-51
2022/09/17 07:31:55;;;;;;;8.03;2.73;;;12.70;99.90;;;;;;5052095;28;20596;-51
2022/09/17 07:34:20;;;;;;;5.57;2.57;;;12.90;99.90;;;;;;5051660;28;20432;-50
2022/09/17 07:36:46;;;;;;;8.03;2.40;;;13.10;99.90;;;;;;5051821;28;20424;-53
2022/09/17 07:39:12;;;;;;;6.27;2.30;;;13.20;99.90;;;;;;5052075;28;20338;-54
2022/09/17 07:41:41;;;;;;;10.27;3.00;;;13.30;99.90;;;;;;5053546;28;20174;-52
2022/09/17 07:44:08;;;;;;;6.30;3.07;;;13.50;99.90;;;;;;5072117;28;20932;-52
2022/09/17 07:46:34;;;;;;;6.17;2.80;;;13.70;99.90;;;;;;5057446;28;21000;-54
2022/09/17 07:49:00;;;;;;;6.37;2.93;;;13.70;99.90;;;;;;5071784;28;20518;-53
2022/09/17 07:51:29;;;;;;;8.33;2.70;;;13.70;99.90;;;;;;5071356;28;20270;-53
2022/09/17 07:53:57;;;;;;;10.43;2.60;;;13.70;99.90;;;;;;5040836;28;20742;-49
2022/09/17 07:56:24;;;;;;;7.83;2.80;;;13.90;99.90;;;;;;5051710;28;20809;-54
2022/09/17 07:58:50;;;;;;;8.40;3.50;;;14.10;99.90;;;;;;5050521;28;20981;-52
2022/09/17 08:01:16;;;;;;;7.53;1.73;;;14.20;99.90;;;;;;5051510;28;20503;-49
2022/09/17 08:03:46;;;;;;;7.40;2.03;;;14.30;99.90;;;;;;5050649;28;20435;-52
2022/09/17 08:06:14;;;;;;;6.00;2.37;;;14.40;99.90;;;;;;5050571;28;20468;-50
2022/09/17 08:08:41;;;;;;;8.87;1.90;;;14.30;99.90;;;;;;5051168;28;20420;-50
2022/09/17 08:11:09;;;;;;;7.20;2.77;;;14.20;99.90;;;;;;5051492;28;20468;-51
2022/09/17 08:13:35;;;;;;;6.67;2.07;;;14.10;99.90;;;;;;5050640;28;20424;-51
2022/09/17 08:16:04;;;;;;;4.93;1.43;;;14.00;99.90;;;;;;5051267;28;20428;-51
2022/09/17 08:18:30;;;;;;;6.03;1.73;;;13.90;99.90;;;;;;5049918;28;20428;-51
2022/09/17 08:21:00;;;;;;;5.60;1.50;;;14.00;99.90;;;;;;5058072;28;20428;-52
2022/09/17 08:23:27;;;;;;;4.83;2.10;;;14.00;99.90;;;;;;5050550;28;20420;-54
2022/09/17 08:25:54;;;;;;;4.33;1.53;;;14.20;99.90;;;;;;5051066;28;20949;-51
2022/09/17 08:28:21;;;;;;;5.93;1.20;;;14.30;99.90;;;;;;5050996;28;20424;-52
2022/09/17 08:30:48;;;;;;;3.60;1.10;;;14.40;99.90;;;;;;5051088;28;20419;-50
2022/09/17 08:33:14;;;;;;;4.13;0.93;;;14.30;99.90;;;;;;5050079;28;20457;-51
2022/09/17 08:35:39;;;;;;;4.40;1.57;;;14.40;99.90;;;;;;5051128;28;20505;-51
2022/09/17 08:38:06;;;;;;;4.33;1.30;;;14.40;99.90;;;;;;5050865;28;20909;-54
2022/09/17 08:40:41;;;;;;;2.83;1.47;;;14.40;99.90;;;;;;5051030;28;20186;-53
2022/09/17 08:43:15;;;;;;;2.20;1.03;;;14.50;99.90;;;;;;5050153;28;20427;-49
2022/09/17 08:45:41;;;;;;;3.07;1.30;;;14.60;99.90;;;;;;5050448;28;21099;-52
2022/09/17 08:48:13;;;;;;;3.27;1.17;;;14.70;99.90;;;;;;5050787;28;20504;-52
2022/09/17 08:50:41;;;;;;;4.83;1.00;;;14.70;99.90;;;;;;5050817;28;20185;-51
2022/09/17 08:53:17;;;;;;;5.43;2.17;;;14.70;99.90;;;;;;5049182;28;20474;-50
2022/09/17 08:56:00;;;;;;;6.83;1.10;;;14.70;99.90;;;;;;5050644;28;20779;-52
2022/09/17 08:58:50;;;;;;;2.63;1.27;;;14.70;99.90;;;;;;5049130;28;21013;-50
2022/09/17 09:01:30;;;;;;;2.80;1.40;;;14.70;99.90;;;;;;5050568;28;20408;-50
2022/09/17 09:04:07;;;;;;;3.90;1.43;;;14.80;99.90;;;;;;5049824;28;20423;-52
2022/09/17 09:06:43;;;;;;;3.50;1.40;;;15.00;99.90;;;;;;5050212;28;20462;-52
2022/09/17 09:09:19;;;;;;;7.13;1.87;;;15.00;99.90;;;;;;5050308;28;20857;-49
2022/09/17 09:11:48;;;;;;;3.73;1.80;;;14.90;99.90;;;;;;5050395;28;20423;-50
2022/09/17 09:14:44;;;;;;;5.97;1.70;;;14.60;99.90;;;;;;5049546;28;20421;-50
2022/09/17 09:17:10;;;;;;;5.43;1.10;;;14.60;99.90;;;;;;5050140;28;20478;-52
2022/09/17 09:19:44;;;;;;;2.90;1.00;;;14.80;99.90;;;;;;5055362;28;20848;-51
2022/09/17 09:22:32;;;;;;;3.17;1.10;;;15.00;99.90;;;;;;5051298;28;20445;-51
2022/09/17 09:25:10;;;;;;;5.90;1.30;;;15.20;99.90;;;;;;5049412;28;20470;-50
2022/09/17 09:27:46;;;;;;;3.00;1.10;;;15.30;99.90;;;;;;5050268;28;20482;-52
2022/09/17 09:30:14;;;;;;;3.37;1.10;;;15.30;99.90;;;;;;5050036;28;20412;-50
2022/09/17 09:32:57;;;;;;;4.50;1.30;;;15.30;99.90;;;;;;5049649;28;20416;-48
2022/09/17 09:35:29;;;;;;;5.33;1.03;;;15.40;99.90;;;;;;5049839;28;20475;-49
2022/09/17 09:38:04;;;;;;;6.00;1.47;;;15.60;99.90;;;;;;5049767;28;20416;-50
2022/09/17 09:40:40;;;;;;;2.97;0.97;;;15.70;99.90;;;;;;5049708;28;20411;-53
2022/09/17 09:43:30;;;;;;;3.33;0.97;;;15.90;99.90;;;;;;5049259;28;20439;-53
2022/09/17 09:46:07;;;;;;;3.87;0.90;;;15.90;99.90;;;;;;5049658;28;20459;-50
2022/09/17 09:48:33;;;;;;;2.70;1.00;;;15.90;99.90;;;;;;5049801;28;20423;-48
2022/09/17 09:51:25;;;;;;;3.47;1.10;;;15.70;99.90;;;;;;5049685;28;20424;-47
2022/09/17 09:54:29;;;;;;;4.00;1.30;;;15.70;99.90;;;;;;5048051;28;20182;-52
2022/09/17 09:56:57;;;;;;;4.00;1.30;;;15.60;99.90;;;;;;5049697;28;20415;-51
2022/09/17 09:59:24;;;;;;;2.10;1.27;;;15.60;99.90;;;;;;5045488;28;20483;-51
2022/09/17 10:01:51;;;;;;;3.73;0.80;;;15.80;99.90;;;;;;5049439;28;20420;-52
2022/09/17 10:04:25;;;;;;;3.47;1.10;;;16.10;99.90;;;;;;5048807;28;20490;-48
2022/09/17 10:07:11;;;;;;;3.43;0.70;;;16.30;99.90;;;;;;5049547;28;20499;-50
2022/09/17 10:09:44;;;;;;;3.50;0.60;;;16.50;99.90;;;;;;5049443;28;21029;-47
2022/09/17 10:12:10;;;;;;;2.40;0.73;;;16.50;99.90;;;;;;5048724;28;20419;-51
2022/09/17 10:14:43;;;;;;;1.90;0.60;;;16.40;99.90;;;;;;5034233;28;20428;-51
2022/09/17 10:17:20;;;;;;;2.37;0.80;;;16.30;99.90;;;;;;5046846;28;20269;-50
2022/09/17 10:20:01;;;;;;;3.00;0.70;;;16.10;99.90;;;;;;5056212;28;20419;-48
2022/09/17 10:22:35;;;;;;;1.30;0.70;;;15.80;99.90;;;;;;5047231;28;20416;-50
2022/09/17 10:25:03;;;;;;;1.83;0.50;;;15.70;99.90;;;;;;5048332;28;20462;-51
2022/09/17 10:27:29;;;;;;;4.20;1.13;;;15.70;99.90;;;;;;5049137;28;20507;-50
2022/09/17 10:30:07;;;;;;;1.30;0.53;;;15.90;99.90;;;;;;5049203;28;20420;-50
2022/09/17 10:32:32;;;;;;;2.63;0.63;;;16.00;99.90;;;;;;5049262;28;20411;-50
2022/09/17 10:35:27;;;;;;;3.17;0.70;;;16.10;99.90;;;;;;5048798;28;20427;-49
2022/09/17 10:37:53;;;;;;;1.50;0.60;;;16.30;99.90;;;;;;5049689;28;20210;-47
2022/09/17 10:40:18;;;;;;;2.00;0.83;;;16.50;99.90;;;;;;5047730;28;20788;-47
2022/09/17 10:42:49;;;;;;;2.50;0.60;;;16.60;99.90;;;;;;5047165;28;20424;-51
2022/09/17 10:45:34;;;;;;;4.47;1.20;;;16.50;99.90;;;;;;5050581;28;20221;-48
2022/09/17 10:48:00;;;;;;;1.10;0.53;;;16.70;99.90;;;;;;5049334;28;20943;-54
2022/09/17 10:50:29;;;;;;;1.73;0.60;;;16.80;99.90;;;;;;5053244;28;20432;-52
2022/09/17 10:53:01;;;;;;;3.13;0.63;;;17.00;99.90;;;;;;5050940;28;20484;-51
2022/09/17 10:55:38;;;;;;;2.10;0.70;;;17.10;99.90;;;;;;5048512;28;20537;-49
2022/09/17 10:58:06;;;;;;;3.07;0.83;;;16.90;99.90;;;;;;5052602;28;20427;-50
2022/09/17 11:00:46;;;;;;;2.10;0.60;;;16.60;99.90;;;;;;5052874;28;20758;-52
2022/09/17 11:03:35;;;;;;;2.40;0.60;;;16.30;99.90;;;;;;5049932;28;20434;-47
2022/09/17 11:06:04;;;;;;;3.80;0.73;;;16.20;99.90;;;;;;5045020;28;20468;-51
2022/09/17 11:08:37;;;;;;;1.33;0.50;;;15.90;99.90;;;;;;5044632;28;20503;-47
2022/09/17 11:11:10;;;;;;;2.00;0.73;;;15.80;99.90;;;;;;5048951;28;20497;-47
2022/09/17 11:13:45;;;;;;;1.33;0.63;;;15.60;99.90;;;;;;5049113;28;20842;-50
2022/09/17 11:16:36;;;;;;;1.40;0.50;;;15.50;99.90;;;;;;5056805;28;20506;-54
2022/09/17 11:19:15;;;;;;;3.47;0.70;;;15.30;99.90;;;;;;5071662;28;20427;-48
2022/09/17 11:22:04;;;;;;;1.13;0.57;;;15.30;99.90;;;;;;5057698;28;20429;-47
2022/09/17 11:24:53;;;;;;;2.00;0.60;;;15.20;99.90;;;;;;5051663;28;20426;-47
2022/09/17 11:27:45;;;;;;;1.67;0.70;;;15.10;99.90;;;;;;5052336;28;20698;-48
2022/09/17 11:30:25;;;;;;;1.27;0.60;;;15.00;99.90;;;;;;5051917;28;20470;-47
2022/09/17 11:32:59;;;;;;;1.93;0.70;;;14.60;99.90;;;;;;5048691;28;20420;-47
2022/09/17 11:35:30;;;;;;;1.23;0.60;;;14.40;99.90;;;;;;5047811;28;20423;-49
2022/09/17 11:38:19;;;;;;;2.70;0.97;;;14.10;99.90;;;;;;5052204;28;20481;-50
2022/09/17 11:40:58;;;;;;;2.40;0.70;;;13.80;99.90;;;;;;5047934;28;20972;-49
2022/09/17 11:43:27;;;;;;;1.33;0.57;;;13.80;99.90;;;;;;5048480;28;21077;-49
2022/09/17 11:46:06;;;;;;;0.80;0.40;;;13.70;99.90;;;;;;5049839;28;20515;-47
2022/09/17 11:48:50;;;;;;;1.03;0.40;;;13.90;99.90;;;;;;5042428;28;20428;-46
2022/09/17 11:51:22;;;;;;;2.10;0.40;;;14.00;99.90;;;;;;5047066;28;20446;-49
2022/09/17 11:54:06;;;;;;;0.90;0.50;;;14.10;99.90;;;;;;5045819;28;20511;-50
2022/09/17 11:56:43;;;;;;;2.10;0.73;;;14.40;99.90;;;;;;5049019;28;20519;-49
2022/09/17 11:59:36;;;;;;;1.67;0.60;;;14.70;99.90;;;;;;5050387;28;20443;-50
2022/09/17 12:02:08;;;;;;;1.33;0.57;;;14.80;99.90;;;;;;5048022;28;20428;-51
2022/09/17 12:04:51;;;;;;;1.10;0.50;;;15.00;99.90;;;;;;5047998;28;20923;-49
2022/09/17 12:07:30;;;;;;;1.63;0.57;;;14.80;99.90;;;;;;5051662;28;21061;-50
2022/09/17 12:10:08;;;;;;;1.73;0.60;;;14.70;99.90;;;;;;5051252;28;20416;-48
2022/09/17 12:12:41;;;;;;;1.03;0.40;;;14.80;99.90;;;;;;5051192;28;20462;-48
2022/09/17 12:15:15;;;;;;;1.67;0.47;;;15.00;99.90;;;;;;5051049;28;20428;-49
2022/09/17 12:17:51;;;;;;;1.17;0.50;;;15.10;99.90;;;;;;5050900;28;20482;-49
2022/09/17 12:20:29;;;;;;;3.77;0.47;;;15.30;99.90;;;;;;5050551;28;20430;-53
2022/09/17 12:22:57;;;;;;;1.43;0.50;;;15.60;99.90;;;;;;5047501;28;20471;-50
2022/09/17 12:25:25;;;;;;;2.93;0.53;;;15.80;99.90;;;;;;5051122;28;20860;-52
2022/09/17 12:27:57;;;;;;;4.30;0.63;;;15.90;99.90;;;;;;5051934;28;20432;-48
2022/09/17 12:30:27;;;;;;;1.73;1.00;;;15.90;99.90;;;;;;5050901;28;20515;-48
2022/09/17 12:33:18;;;;;;;2.40;0.50;;;15.80;99.90;;;;;;5050244;28;20431;-48
2022/09/17 12:35:57;;;;;;;5.43;0.90;;;15.70;99.90;;;;;;5050995;28;20416;-51
2022/09/17 12:38:36;;;;;;;1.80;0.53;;;15.70;99.90;;;;;;5049637;28;20420;-50
2022/09/17 12:41:31;;;;;;;2.50;1.03;;;15.80;99.90;;;;;;5050600;28;20424;-49
2022/09/17 12:44:12;;;;;;;4.07;0.80;;;15.90;99.90;;;;;;5049759;28;20489;-51
2022/09/17 12:46:56;;;;;;;3.33;0.70;;;16.10;99.90;;;;;;5048377;28;20798;-49
2022/09/17 12:49:31;;;;;;;3.23;1.37;;;16.10;99.90;;;;;;5049821;28;20527;-47
2022/09/17 12:52:00;;;;;;;2.40;0.87;;;15.90;99.90;;;;;;5051447;28;20499;-49
2022/09/17 12:54:57;;;;;;;2.43;0.70;;;15.70;99.90;;;;;;5050390;28;20477;-47
2022/09/17 12:58:09;;;;;;;1.40;0.57;;;15.70;99.90;;;;;;5049662;28;20420;-50
2022/09/17 13:00:41;;;;;;;3.40;0.63;;;15.70;99.90;;;;;;5048949;28;21165;-51
2022/09/17 13:03:15;;;;;;;1.90;0.70;;;15.70;99.90;;;;;;5048517;28;20498;-52
2022/09/17 13:05:59;;;;;;;0.97;0.50;;;15.80;99.90;;;;;;5047666;28;20470;-53
2022/09/17 13:08:48;;;;;;;1.43;0.60;;;15.90;99.90;;;;;;5047654;28;20421;-51
2022/09/17 13:11:25;;;;;;;2.27;1.00;;;16.10;99.90;;;;;;5048108;28;20456;-52